createdAt,value
2023-02-09T00:00:10.654Z,-0.20
2023-02-09T00:02:38.532Z,-0.20
2023-02-09T00:05:05.635Z,-0.20
2023-02-09T00:07:32.563Z,-0.20
2023-02-09T00:09:59.369Z,-0.20
2023-02-09T00:12:44.829Z,-0.20
2023-02-09T00:15:11.713Z,-0.20
2023-02-09T00:17:38.551Z,-0.20
2023-02-09T00:20:06.672Z,-0.20
2023-02-09T00:22:33.814Z,-0.20
2023-02-09T00:25:00.644Z,-0.20
2023-02-09T00:27:27.504Z,-0.20
2023-02-09T00:29:54.290Z,-0.20
2023-02-09T00:32:21.088Z,-0.20
2023-02-09T00:34:47.980Z,-0.20
2023-02-09T00:37:14.856Z,-0.30
2023-02-09T00:39:41.722Z,-0.30
2023-02-09T00:42:10.895Z,-0.30
2023-02-09T00:44:40.287Z,-0.30
2023-02-09T00:47:08.328Z,-0.30
2023-02-09T00:49:35.418Z,-0.30
2023-02-09T00:52:02.395Z,-0.30
2023-02-09T00:54:29.238Z,-0.40
2023-02-09T00:56:56.105Z,-0.30
2023-02-09T00:59:22.897Z,-0.30
2023-02-09T01:01:49.739Z,-0.30
2023-02-09T01:04:16.704Z,-0.30
2023-02-09T01:06:43.603Z,-0.30
2023-02-09T01:09:10.444Z,-0.30
2023-02-09T01:11:37.244Z,-0.30
2023-02-09T01:14:04.574Z,-0.30
2023-02-09T01:16:32.014Z,-0.30
2023-02-09T01:19:01.176Z,-0.30
2023-02-09T01:21:28.799Z,-0.40
2023-02-09T01:23:56.237Z,-0.40
2023-02-09T01:26:23.262Z,-0.40
2023-02-09T01:28:52.049Z,-0.40
2023-02-09T01:31:24.133Z,-0.40
2023-02-09T01:33:51.720Z,-0.50
2023-02-09T01:36:18.912Z,-0.50
2023-02-09T01:38:45.834Z,-0.60
2023-02-09T01:41:13.429Z,-0.60
2023-02-09T01:43:56.783Z,-0.60
2023-02-09T01:46:25.877Z,-0.60
2023-02-09T01:48:58.796Z,-0.60
2023-02-09T01:51:27.218Z,-0.70
2023-02-09T01:53:54.259Z,-0.70
2023-02-09T01:56:28.388Z,-0.70
2023-02-09T01:58:55.488Z,-0.70
2023-02-09T02:01:23.428Z,-0.70
2023-02-09T02:03:50.778Z,-0.80
2023-02-09T02:06:18.962Z,-0.80
2023-02-09T02:08:49.180Z,-0.80
2023-02-09T02:11:16.516Z,-0.90
2023-02-09T02:13:43.638Z,-0.90
2023-02-09T02:16:34.639Z,-0.90
2023-02-09T02:19:07.254Z,-0.80
2023-02-09T02:22:09.443Z,-0.90
2023-02-09T02:25:03.701Z,-0.90
2023-02-09T02:27:30.691Z,-0.90
2023-02-09T02:29:59.500Z,-0.90
2023-02-09T02:32:51.451Z,-0.90
2023-02-09T02:35:41.195Z,-0.90
2023-02-09T02:38:17.152Z,-0.90
2023-02-09T02:41:06.558Z,-0.90
2023-02-09T02:43:57.464Z,-0.90
2023-02-09T02:46:24.273Z,-0.90
2023-02-09T02:48:53.858Z,-0.90
2023-02-09T02:51:36.839Z,-1.00
2023-02-09T02:54:08.408Z,-1.00
2023-02-09T02:56:39.003Z,-0.80
2023-02-09T02:59:10.371Z,-0.80
2023-02-09T03:01:46.169Z,-0.80
2023-02-09T03:04:15.140Z,-0.80
2023-02-09T03:06:42.000Z,-0.90
2023-02-09T03:09:08.909Z,-0.80
2023-02-09T03:11:43.883Z,-0.80
2023-02-09T03:14:33.797Z,-0.90
2023-02-09T03:17:23.324Z,-0.90
2023-02-09T03:20:16.154Z,-0.90
2023-02-09T03:22:47.716Z,-0.90
2023-02-09T03:25:37.265Z,-0.90
2023-02-09T03:28:09.155Z,-0.90
2023-02-09T03:30:37.155Z,-0.90
2023-02-09T03:33:05.159Z,-0.80
2023-02-09T03:35:39.873Z,-0.80
2023-02-09T03:38:07.238Z,-0.90
2023-02-09T03:40:34.981Z,-0.90
2023-02-09T03:43:01.911Z,-0.90
2023-02-09T03:45:28.805Z,-0.80
2023-02-09T03:47:55.583Z,-0.80
2023-02-09T03:50:22.438Z,-0.80
2023-02-09T03:52:49.826Z,-0.80
2023-02-09T03:55:16.864Z,-0.80
2023-02-09T03:57:43.668Z,-0.50
2023-02-09T04:00:11.301Z,-0.80
2023-02-09T04:02:38.153Z,-0.80
2023-02-09T04:05:06.004Z,-0.80
2023-02-09T04:07:33.097Z,-0.70
2023-02-09T04:09:59.923Z,-0.70
2023-02-09T04:12:26.820Z,-0.70
2023-02-09T04:14:53.681Z,-0.70
2023-02-09T04:17:20.459Z,-0.70
2023-02-09T04:19:47.304Z,-0.70
2023-02-09T04:22:14.240Z,-0.50
2023-02-09T04:24:41.033Z,-0.60
2023-02-09T04:27:07.875Z,-0.60
2023-02-09T04:29:34.670Z,-0.60
2023-02-09T04:32:01.633Z,-0.50
2023-02-09T04:34:28.452Z,-0.60
2023-02-09T04:36:55.271Z,-0.60
2023-02-09T04:39:22.047Z,-0.50
2023-02-09T04:41:48.835Z,-0.50
2023-02-09T04:44:15.652Z,-0.50
2023-02-09T04:46:44.711Z,-0.40
2023-02-09T04:49:12.708Z,-0.50
2023-02-09T04:51:39.531Z,-0.50
2023-02-09T04:54:06.301Z,-0.40
2023-02-09T04:56:33.166Z,-0.50
2023-02-09T04:59:18.378Z,-0.40
2023-02-09T05:01:45.193Z,-0.40
2023-02-09T05:04:12.000Z,-0.50
2023-02-09T05:06:38.799Z,-0.50
2023-02-09T05:09:05.583Z,-0.50
2023-02-09T05:11:32.367Z,-0.50
2023-02-09T05:13:59.196Z,-0.40
2023-02-09T05:16:26.068Z,-0.40
2023-02-09T05:18:53.006Z,-0.40
2023-02-09T05:21:19.868Z,-0.50
2023-02-09T05:23:46.697Z,-0.60
2023-02-09T05:26:13.520Z,-0.60
2023-02-09T05:28:40.315Z,-0.60
2023-02-09T05:31:07.184Z,-0.50
2023-02-09T05:33:34.123Z,-0.50
2023-02-09T05:36:01.119Z,-0.50
2023-02-09T05:38:27.954Z,-0.50
2023-02-09T05:40:54.789Z,-0.50
2023-02-09T05:43:21.576Z,-0.40
2023-02-09T05:45:48.416Z,-0.40
2023-02-09T05:48:15.260Z,-0.40
2023-02-09T05:50:42.127Z,-0.40
2023-02-09T05:53:09.610Z,-0.40
2023-02-09T05:55:36.901Z,-0.40
2023-02-09T05:58:03.828Z,-0.50
2023-02-09T06:00:30.824Z,-0.40
2023-02-09T06:02:58.761Z,-0.40
2023-02-09T06:05:26.294Z,-0.40
2023-02-09T06:07:53.326Z,-0.40
2023-02-09T06:10:20.388Z,-0.40
2023-02-09T06:12:47.352Z,-0.40
2023-02-09T06:15:16.432Z,-0.40
2023-02-09T06:17:43.764Z,-0.40
2023-02-09T06:20:11.219Z,-0.30
2023-02-09T06:22:38.101Z,-0.40
2023-02-09T06:25:05.161Z,-0.40
2023-02-09T06:27:31.945Z,-0.40
2023-02-09T06:29:58.804Z,-0.40
2023-02-09T06:32:25.635Z,-0.40
2023-02-09T06:34:52.415Z,-0.30
2023-02-09T06:37:19.275Z,-0.30
2023-02-09T06:39:46.129Z,-0.40
2023-02-09T06:42:12.907Z,-0.30
2023-02-09T06:44:39.734Z,-0.30
2023-02-09T06:47:06.552Z,-0.30
2023-02-09T06:49:33.415Z,-0.40
2023-02-09T06:52:00.280Z,-0.30
2023-02-09T06:54:29.176Z,-0.30
2023-02-09T06:56:56.210Z,-0.30
2023-02-09T06:59:23.353Z,-0.30
2023-02-09T07:01:54.451Z,-0.30
2023-02-09T07:04:21.931Z,-0.30
2023-02-09T07:06:48.836Z,-0.30
2023-02-09T07:09:15.674Z,-0.10
2023-02-09T07:11:42.683Z,-0.10
2023-02-09T07:14:09.464Z,0.00
2023-02-09T07:16:36.256Z,0.00
2023-02-09T07:19:03.288Z,0.00
2023-02-09T07:21:30.100Z,0.10
2023-02-09T07:23:56.981Z,0.10
2023-02-09T07:26:23.876Z,0.10
2023-02-09T07:28:50.762Z,0.10
2023-02-09T07:31:19.184Z,0.10
2023-02-09T07:33:46.566Z,0.10
2023-02-09T07:36:15.471Z,0.20
2023-02-09T07:38:43.132Z,0.20
2023-02-09T07:41:18.200Z,0.20
2023-02-09T07:43:45.771Z,0.30
2023-02-09T07:46:15.696Z,0.40
2023-02-09T07:48:42.516Z,0.40
2023-02-09T07:51:18.337Z,0.50
2023-02-09T07:53:45.697Z,0.50
2023-02-09T07:56:13.242Z,0.60
2023-02-09T07:58:40.179Z,0.50
2023-02-09T08:01:10.662Z,0.60
2023-02-09T08:03:38.730Z,0.60
2023-02-09T08:06:43.132Z,0.70
2023-02-09T08:09:12.263Z,0.70
2023-02-09T08:11:54.293Z,0.90
2023-02-09T08:14:26.565Z,0.90
2023-02-09T08:17:17.602Z,0.90
2023-02-09T08:19:47.852Z,1.00
2023-02-09T08:22:14.709Z,1.00
2023-02-09T08:24:41.611Z,1.10
2023-02-09T08:27:08.530Z,1.20
2023-02-09T08:29:35.442Z,1.30
2023-02-09T08:32:02.393Z,1.20
2023-02-09T08:34:29.312Z,1.20
2023-02-09T08:36:56.151Z,1.40
2023-02-09T08:39:22.927Z,1.40
2023-02-09T08:41:49.788Z,1.40
2023-02-09T08:44:16.578Z,1.50
2023-02-09T08:46:43.588Z,1.60
2023-02-09T08:49:10.492Z,1.60
2023-02-09T08:51:37.575Z,1.60
2023-02-09T08:54:04.428Z,1.70
2023-02-09T08:56:31.333Z,1.70
2023-02-09T08:58:58.183Z,1.80
2023-02-09T09:01:25.073Z,1.80
2023-02-09T09:03:52.041Z,1.90
2023-02-09T09:06:19.006Z,1.80
2023-02-09T09:08:45.916Z,2.10
2023-02-09T09:11:15.915Z,1.90
2023-02-09T09:13:42.776Z,2.00
2023-02-09T09:16:21.856Z,2.10
2023-02-09T09:18:49.741Z,2.10
2023-02-09T09:21:18.596Z,2.20
2023-02-09T09:23:47.369Z,2.30
2023-02-09T09:26:15.425Z,2.40
2023-02-09T09:28:42.512Z,2.40
2023-02-09T09:31:14.779Z,2.60
2023-02-09T09:33:42.753Z,2.90
2023-02-09T09:36:10.912Z,3.00
2023-02-09T09:38:39.065Z,3.30
2023-02-09T09:41:24.637Z,3.40
2023-02-09T09:43:53.679Z,3.50
2023-02-09T09:46:33.226Z,3.50
2023-02-09T09:49:00.549Z,3.50
2023-02-09T09:51:45.668Z,3.40
2023-02-09T09:54:22.965Z,3.40
2023-02-09T09:56:52.493Z,3.40
2023-02-09T09:59:26.574Z,3.50
2023-02-09T10:01:55.146Z,3.60
2023-02-09T10:04:22.337Z,3.50
2023-02-09T10:07:10.211Z,3.60
2023-02-09T10:09:51.453Z,3.70
2023-02-09T10:12:22.911Z,3.70
2023-02-09T10:14:49.724Z,3.90
2023-02-09T10:17:16.537Z,3.90
2023-02-09T10:19:43.368Z,4.00
2023-02-09T10:22:13.683Z,4.10
2023-02-09T10:24:41.943Z,4.00
2023-02-09T10:27:14.559Z,4.00
2023-02-09T10:29:41.843Z,4.10
2023-02-09T10:32:11.653Z,4.10
2023-02-09T10:34:38.489Z,4.10
2023-02-09T10:37:20.694Z,4.20
2023-02-09T10:40:09.820Z,4.30
2023-02-09T10:42:38.251Z,4.30
2023-02-09T10:45:12.601Z,4.30
2023-02-09T10:47:39.414Z,4.30
2023-02-09T10:50:12.338Z,4.20
2023-02-09T10:52:53.136Z,4.30
2023-02-09T10:55:34.088Z,4.30
2023-02-09T10:58:06.392Z,4.20
2023-02-09T11:00:43.177Z,4.30
2023-02-09T11:03:27.196Z,4.20
2023-02-09T11:06:20.324Z,4.10
2023-02-09T11:08:52.557Z,4.20
2023-02-09T11:11:31.668Z,4.20
2023-02-09T11:13:59.064Z,4.20
2023-02-09T11:16:37.930Z,4.20
2023-02-09T11:19:12.499Z,4.30
2023-02-09T11:22:06.237Z,4.40
2023-02-09T11:24:59.092Z,4.50
2023-02-09T11:27:46.929Z,4.60
2023-02-09T11:30:36.206Z,4.50
2023-02-09T11:33:02.960Z,4.60
2023-02-09T11:35:54.333Z,4.50
2023-02-09T11:38:32.037Z,4.40
2023-02-09T11:41:19.982Z,4.40
2023-02-09T11:43:51.258Z,4.40
2023-02-09T11:46:21.865Z,4.30
2023-02-09T11:49:00.163Z,4.30
2023-02-09T11:51:27.066Z,4.30
2023-02-09T11:54:14.183Z,4.30
2023-02-09T11:56:51.067Z,4.30
2023-02-09T11:59:26.694Z,4.30
2023-02-09T12:02:13.852Z,4.30
2023-02-09T12:05:00.332Z,4.30
2023-02-09T12:07:35.837Z,4.30
2023-02-09T12:10:27.297Z,4.30
2023-02-09T12:13:03.215Z,4.30
2023-02-09T12:15:43.974Z,4.40
2023-02-09T12:18:21.196Z,4.40
2023-02-09T12:20:56.786Z,4.40
2023-02-09T12:23:43.660Z,4.40
2023-02-09T12:26:16.381Z,4.50
2023-02-09T12:29:03.601Z,4.30
2023-02-09T12:31:51.331Z,4.30
2023-02-09T12:34:28.474Z,4.40
2023-02-09T12:37:14.138Z,4.30
2023-02-09T12:40:07.175Z,4.20
2023-02-09T12:43:04.226Z,4.20
2023-02-09T12:45:43.682Z,4.20
2023-02-09T12:48:14.531Z,4.20
2023-02-09T12:50:46.264Z,4.40
2023-02-09T12:53:22.310Z,4.30
2023-02-09T12:56:25.687Z,4.30
2023-02-09T12:58:52.580Z,4.50
2023-02-09T13:01:19.662Z,4.40
2023-02-09T13:03:56.366Z,4.40
2023-02-09T13:06:54.503Z,4.50
2023-02-09T13:09:34.993Z,4.50
2023-02-09T13:12:14.690Z,4.40
2023-02-09T13:14:48.993Z,4.40
2023-02-09T13:17:41.926Z,4.30
2023-02-09T13:20:38.062Z,4.30
2023-02-09T13:23:39.109Z,4.30
2023-02-09T13:26:27.690Z,4.40
2023-02-09T13:29:21.031Z,4.40
2023-02-09T13:32:15.749Z,4.40
2023-02-09T13:35:03.237Z,4.40
2023-02-09T13:37:37.506Z,4.30
2023-02-09T13:40:24.489Z,4.30
2023-02-09T13:43:16.277Z,4.20
2023-02-09T13:45:51.376Z,4.20
2023-02-09T13:48:41.538Z,4.20
2023-02-09T13:51:18.707Z,4.20
2023-02-09T13:54:02.734Z,4.10
2023-02-09T13:56:32.280Z,4.10
2023-02-09T13:59:00.240Z,4.10
2023-02-09T14:01:32.851Z,4.10
2023-02-09T14:04:16.072Z,4.10
2023-02-09T14:06:45.868Z,4.10
2023-02-09T14:09:23.278Z,4.10
2023-02-09T14:11:53.386Z,4.10
2023-02-09T14:14:25.224Z,4.10
2023-02-09T14:17:24.340Z,4.20
2023-02-09T14:19:53.998Z,4.10
2023-02-09T14:22:30.522Z,4.20
2023-02-09T14:24:57.766Z,4.20
2023-02-09T14:27:29.567Z,4.10
2023-02-09T14:29:56.658Z,4.10
2023-02-09T14:32:33.680Z,4.10
2023-02-09T14:35:40.127Z,4.10
2023-02-09T14:38:36.029Z,4.10
2023-02-09T14:41:28.100Z,4.00
2023-02-09T14:44:07.177Z,4.10
2023-02-09T14:46:57.234Z,4.00
2023-02-09T14:49:24.843Z,4.00
2023-02-09T14:52:02.176Z,4.00
2023-02-09T14:54:32.343Z,4.10
2023-02-09T14:57:01.065Z,4.10
2023-02-09T14:59:28.271Z,4.20
2023-02-09T15:01:55.691Z,4.10
2023-02-09T15:04:22.598Z,4.00
2023-02-09T15:06:58.864Z,4.00
2023-02-09T15:09:34.793Z,4.00
2023-02-09T15:12:06.087Z,4.00
2023-02-09T15:14:44.199Z,3.90
2023-02-09T15:17:15.947Z,4.00
2023-02-09T15:19:43.244Z,4.10
2023-02-09T15:22:13.570Z,3.90
2023-02-09T15:24:41.431Z,3.90
2023-02-09T15:27:35.519Z,3.90
2023-02-09T15:30:04.805Z,3.90
2023-02-09T15:32:31.822Z,3.90
2023-02-09T15:34:58.646Z,3.80
2023-02-09T15:37:36.360Z,3.80
2023-02-09T15:40:45.319Z,3.80
2023-02-09T15:43:36.195Z,3.80
2023-02-09T15:46:03.730Z,3.80
2023-02-09T15:48:32.275Z,3.70
2023-02-09T15:51:00.330Z,3.70
2023-02-09T15:53:27.568Z,3.60
2023-02-09T15:55:58.546Z,3.70
2023-02-09T15:58:41.907Z,3.60
2023-02-09T16:01:13.090Z,3.70
2023-02-09T16:03:40.094Z,3.70
2023-02-09T16:06:36.353Z,3.60
2023-02-09T16:09:03.271Z,3.60
2023-02-09T16:11:33.018Z,3.50
2023-02-09T16:14:00.000Z,3.50
2023-02-09T16:16:28.099Z,3.50
2023-02-09T16:18:55.406Z,3.50
2023-02-09T16:21:24.253Z,3.50
2023-02-09T16:23:54.382Z,3.50
2023-02-09T16:26:21.502Z,3.50
2023-02-09T16:28:48.501Z,3.60
2023-02-09T16:31:15.343Z,3.60
2023-02-09T16:33:43.417Z,3.50
2023-02-09T16:36:16.790Z,3.60
2023-02-09T16:38:44.003Z,3.60
2023-02-09T16:41:32.381Z,3.60
2023-02-09T16:44:12.417Z,3.60
2023-02-09T16:46:39.288Z,3.60
2023-02-09T16:49:06.273Z,3.60
2023-02-09T16:51:34.584Z,3.60
2023-02-09T16:54:01.403Z,3.60
2023-02-09T16:56:30.855Z,3.50
2023-02-09T16:58:57.819Z,3.50
2023-02-09T17:01:24.766Z,3.50
2023-02-09T17:03:55.687Z,3.60
2023-02-09T17:06:29.587Z,3.50
2023-02-09T17:08:56.695Z,3.80
2023-02-09T17:11:26.158Z,3.60
2023-02-09T17:13:53.117Z,3.50
2023-02-09T17:16:27.162Z,3.50
2023-02-09T17:18:56.806Z,3.50
2023-02-09T17:21:25.757Z,3.50
2023-02-09T17:23:53.468Z,3.50
2023-02-09T17:26:20.868Z,3.40
2023-02-09T17:28:47.736Z,3.40
2023-02-09T17:31:31.465Z,3.30
2023-02-09T17:34:07.350Z,3.40
2023-02-09T17:36:34.642Z,3.40
2023-02-09T17:39:01.756Z,3.30
2023-02-09T17:41:44.518Z,3.30
2023-02-09T17:44:46.042Z,3.30
2023-02-09T17:47:08.912Z,3.30
2023-02-09T17:49:35.739Z,3.30
2023-02-09T17:52:02.638Z,3.40
2023-02-09T17:54:29.540Z,3.40
2023-02-09T17:56:56.417Z,3.30
2023-02-09T17:59:23.308Z,3.30
2023-02-09T18:01:50.364Z,3.30
2023-02-09T18:04:24.731Z,3.30
2023-02-09T18:06:51.605Z,3.50
2023-02-09T18:09:18.540Z,3.40
2023-02-09T18:11:45.392Z,3.40
2023-02-09T18:14:13.952Z,3.50
2023-02-09T18:16:42.565Z,3.50
2023-02-09T18:19:12.655Z,3.50
2023-02-09T18:21:50.808Z,3.60
2023-02-09T18:24:19.886Z,3.60
2023-02-09T18:26:47.875Z,3.60
2023-02-09T18:29:15.038Z,3.50
2023-02-09T18:31:41.907Z,3.50
2023-02-09T18:34:09.118Z,3.50
2023-02-09T18:36:36.497Z,3.70
2023-02-09T18:39:03.400Z,3.60
2023-02-09T18:41:30.492Z,3.60
2023-02-09T18:43:57.349Z,3.60
2023-02-09T18:46:25.393Z,3.60
2023-02-09T18:48:53.182Z,3.60
2023-02-09T18:51:22.137Z,3.70
2023-02-09T18:53:50.318Z,3.70
2023-02-09T18:56:19.400Z,3.80
2023-02-09T18:58:46.410Z,3.70
2023-02-09T19:01:13.583Z,3.70
2023-02-09T19:03:40.492Z,3.80
2023-02-09T19:06:11.802Z,3.90
2023-02-09T19:08:39.582Z,3.80
2023-02-09T19:11:07.080Z,3.80
2023-02-09T19:13:34.109Z,3.90
2023-02-09T19:16:01.352Z,3.80
2023-02-09T19:18:29.199Z,3.90
2023-02-09T19:20:56.054Z,3.90
2023-02-09T19:23:24.855Z,3.90
2023-02-09T19:26:01.933Z,3.80
2023-02-09T19:28:28.903Z,3.80
2023-02-09T19:30:55.797Z,3.80
2023-02-09T19:33:23.434Z,3.80
2023-02-09T19:36:00.089Z,3.80
2023-02-09T19:38:27.150Z,3.90
2023-02-09T19:41:09.755Z,3.90
2023-02-09T19:43:37.325Z,3.90
2023-02-09T19:46:05.289Z,3.90
2023-02-09T19:48:32.269Z,4.00
2023-02-09T19:50:59.690Z,4.10
2023-02-09T19:53:27.102Z,4.10
2023-02-09T19:55:54.848Z,4.10
2023-02-09T19:58:22.458Z,4.10
2023-02-09T20:00:53.400Z,4.10
2023-02-09T20:03:20.408Z,4.10
2023-02-09T20:05:47.419Z,4.00
2023-02-09T20:08:17.872Z,4.00
2023-02-09T20:10:45.359Z,4.10
2023-02-09T20:13:15.355Z,4.20
2023-02-09T20:15:43.584Z,4.10
2023-02-09T20:18:12.112Z,4.10
2023-02-09T20:20:41.736Z,4.10
2023-02-09T20:23:08.924Z,4.20
2023-02-09T20:25:35.880Z,4.20
2023-02-09T20:28:03.113Z,4.10
2023-02-09T20:30:29.976Z,4.20
2023-02-09T20:32:56.814Z,4.10
2023-02-09T20:35:24.194Z,4.10
2023-02-09T20:37:52.832Z,4.00
2023-02-09T20:40:19.957Z,4.00
2023-02-09T20:43:05.459Z,4.20
2023-02-09T20:45:50.760Z,4.20
2023-02-09T20:48:18.078Z,4.10
2023-02-09T20:50:45.407Z,4.00
2023-02-09T20:53:12.624Z,3.90
2023-02-09T20:55:39.471Z,4.00
2023-02-09T20:58:06.550Z,4.10
2023-02-09T21:00:33.514Z,4.20
2023-02-09T21:03:00.887Z,4.10
2023-02-09T21:05:27.853Z,4.10
2023-02-09T21:07:55.442Z,4.30
2023-02-09T21:10:22.644Z,4.40
2023-02-09T21:12:49.680Z,4.40
2023-02-09T21:15:17.102Z,4.50
2023-02-09T21:17:48.022Z,4.40
2023-02-09T21:20:16.498Z,4.40
2023-02-09T21:22:43.565Z,4.30
2023-02-09T21:25:10.570Z,4.40
2023-02-09T21:27:37.454Z,4.40
2023-02-09T21:30:05.379Z,4.40
2023-02-09T21:32:34.989Z,4.50
2023-02-09T21:35:02.019Z,4.40
2023-02-09T21:37:32.490Z,4.50
2023-02-09T21:40:02.957Z,4.50
2023-02-09T21:42:31.409Z,4.50
2023-02-09T21:44:59.625Z,4.50
2023-02-09T21:47:31.972Z,4.60
2023-02-09T21:49:59.447Z,4.60
2023-02-09T21:52:26.672Z,4.50
2023-02-09T21:54:53.974Z,4.40
2023-02-09T21:57:21.599Z,4.40
2023-02-09T21:59:48.625Z,4.50
2023-02-09T22:02:17.748Z,4.40
2023-02-09T22:04:45.667Z,4.40
2023-02-09T22:07:13.647Z,4.50
2023-02-09T22:09:40.652Z,4.50
2023-02-09T22:12:07.788Z,4.50
2023-02-09T22:14:34.873Z,4.50
2023-02-09T22:17:02.156Z,4.50
2023-02-09T22:19:29.069Z,4.50
2023-02-09T22:21:57.960Z,4.40
2023-02-09T22:24:25.148Z,4.40
2023-02-09T22:26:52.062Z,4.50
2023-02-09T22:29:19.692Z,4.40
2023-02-09T22:31:47.072Z,4.50
2023-02-09T22:34:13.903Z,4.40
2023-02-09T22:36:40.831Z,4.50
2023-02-09T22:39:07.985Z,4.30
2023-02-09T22:41:35.947Z,4.20
2023-02-09T22:44:09.724Z,4.20
2023-02-09T22:46:39.642Z,4.20
2023-02-09T22:49:33.031Z,4.20
2023-02-09T22:52:01.208Z,4.00
2023-02-09T22:54:28.190Z,4.00
2023-02-09T22:56:55.446Z,4.00
2023-02-09T22:59:22.237Z,4.00
2023-02-09T23:01:49.152Z,4.00
2023-02-09T23:04:16.143Z,4.00
2023-02-09T23:06:43.036Z,4.20
2023-02-09T23:09:11.236Z,4.10
2023-02-09T23:11:38.401Z,4.20
2023-02-09T23:14:10.653Z,4.20
2023-02-09T23:16:39.706Z,4.20
2023-02-09T23:19:08.404Z,4.10
2023-02-09T23:21:38.007Z,4.20
2023-02-09T23:24:05.533Z,4.20
2023-02-09T23:26:33.026Z,4.30
2023-02-09T23:29:01.585Z,4.30
2023-02-09T23:31:29.023Z,4.40
2023-02-09T23:33:56.075Z,4.50
2023-02-09T23:36:25.664Z,4.40
2023-02-09T23:38:54.901Z,4.40
2023-02-09T23:41:22.798Z,4.40
2023-02-09T23:43:50.732Z,4.50
2023-02-09T23:46:23.482Z,4.50
2023-02-09T23:48:53.282Z,4.50
2023-02-09T23:51:24.307Z,4.60
2023-02-09T23:53:51.252Z,4.60
2023-02-09T23:56:18.984Z,4.50
2023-02-09T23:58:48.960Z,4.50
